sensor_id;sensor_type;location;lat;lon;timestamp;P1;durP1;ratioP1;P2;durP2;ratioP2
54517;SDS011;40423;53.176;6.002;2023-04-01T00:02:01;12.77;;;9.45;;
54517;SDS011;40423;53.176;6.002;2023-04-01T00:04:27;11.68;;;8.35;;
54517;SDS011;40423;53.176;6.002;2023-04-01T00:06:52;14.73;;;10.57;;
54517;SDS011;40423;53.176;6.002;2023-04-01T00:09:18;13.60;;;10.15;;
54517;SDS011;40423;53.176;6.002;2023-04-01T00:11:44;11.88;;;9.75;;
54517;SDS011;40423;53.176;6.002;2023-04-01T00:14:10;10.30;;;8.20;;
54517;SDS011;40423;53.176;6.002;2023-04-01T00:16:36;15.88;;;11.30;;
54517;SDS011;40423;53.176;6.002;2023-04-01T00:19:02;14.40;;;10.48;;
54517;SDS011;40423;53.176;6.002;2023-04-01T00:21:28;12.57;;;9.63;;
54517;SDS011;40423;53.176;6.002;2023-04-01T00:23:55;15.20;;;10.55;;
54517;SDS011;40423;53.176;6.002;2023-04-01T00:26:20;12.82;;;9.68;;
54517;SDS011;40423;53.176;6.002;2023-04-01T00:28:46;13.30;;;10.45;;
54517;SDS011;40423;53.176;6.002;2023-04-01T00:31:13;14.80;;;9.60;;
54517;SDS011;40423;53.176;6.002;2023-04-01T00:33:39;11.40;;;9.57;;
54517;SDS011;40423;53.176;6.002;2023-04-01T00:36:10;12.40;;;9.70;;
54517;SDS011;40423;53.176;6.002;2023-04-01T00:38:41;13.23;;;9.98;;
54517;SDS011;40423;53.176;6.002;2023-04-01T00:41:08;12.20;;;9.32;;
54517;SDS011;40423;53.176;6.002;2023-04-01T00:43:39;13.23;;;10.20;;
54517;SDS011;40423;53.176;6.002;2023-04-01T00:46:06;12.02;;;9.20;;
54517;SDS011;40423;53.176;6.002;2023-04-01T00:48:35;15.43;;;10.68;;
54517;SDS011;40423;53.176;6.002;2023-04-01T00:51:04;15.50;;;10.85;;
54517;SDS011;40423;53.176;6.002;2023-04-01T00:53:40;15.35;;;10.30;;
54517;SDS011;40423;53.176;6.002;2023-04-01T00:58:51;13.55;;;10.30;;
54517;SDS011;40423;53.176;6.002;2023-04-01T01:01:23;14.20;;;10.73;;
54517;SDS011;40423;53.176;6.002;2023-04-01T01:03:50;11.88;;;9.48;;
54517;SDS011;40423;53.176;6.002;2023-04-01T01:09:03;16.20;;;10.85;;
54517;SDS011;40423;53.176;6.002;2023-04-01T01:11:42;20.73;;;10.48;;
54517;SDS011;40423;53.176;6.002;2023-04-01T01:14:16;14.80;;;11.02;;
54517;SDS011;40423;53.176;6.002;2023-04-01T01:16:58;12.50;;;9.18;;
54517;SDS011;40423;53.176;6.002;2023-04-01T01:25:29;12.43;;;10.07;;
54517;SDS011;40423;53.176;6.002;2023-04-01T01:33:24;12.45;;;9.15;;
54517;SDS011;40423;53.176;6.002;2023-04-01T01:36:10;12.05;;;9.43;;
54517;SDS011;40423;53.176;6.002;2023-04-01T01:38:38;12.07;;;9.63;;
54517;SDS011;40423;53.176;6.002;2023-04-01T01:41:05;12.82;;;10.32;;
54517;SDS011;40423;53.176;6.002;2023-04-01T01:43:36;11.90;;;9.13;;
54517;SDS011;40423;53.176;6.002;2023-04-01T01:46:07;13.32;;;10.13;;
54517;SDS011;40423;53.176;6.002;2023-04-01T01:48:38;15.13;;;10.75;;
54517;SDS011;40423;53.176;6.002;2023-04-01T01:51:06;17.00;;;10.95;;
54517;SDS011;40423;53.176;6.002;2023-04-01T01:53:32;14.77;;;9.95;;
54517;SDS011;40423;53.176;6.002;2023-04-01T01:55:58;12.90;;;9.05;;
54517;SDS011;40423;53.176;6.002;2023-04-01T02:00:54;13.35;;;10.00;;
54517;SDS011;40423;53.176;6.002;2023-04-01T02:03:31;13.50;;;9.90;;
54517;SDS011;40423;53.176;6.002;2023-04-01T02:06:01;12.88;;;9.55;;
54517;SDS011;40423;53.176;6.002;2023-04-01T02:08:34;12.88;;;10.02;;
54517;SDS011;40423;53.176;6.002;2023-04-01T02:11:13;14.73;;;10.68;;
54517;SDS011;40423;53.176;6.002;2023-04-01T02:13:50;15.00;;;10.40;;
54517;SDS011;40423;53.176;6.002;2023-04-01T02:18:56;13.95;;;9.75;;
54517;SDS011;40423;53.176;6.002;2023-04-01T02:21:26;14.60;;;9.98;;
54517;SDS011;40423;53.176;6.002;2023-04-01T02:23:55;14.90;;;10.23;;
54517;SDS011;40423;53.176;6.002;2023-04-01T02:26:22;11.82;;;9.35;;
54517;SDS011;40423;53.176;6.002;2023-04-01T02:28:50;12.10;;;9.88;;
54517;SDS011;40423;53.176;6.002;2023-04-01T02:31:18;13.02;;;10.45;;
54517;SDS011;40423;53.176;6.002;2023-04-01T02:33:44;11.48;;;8.70;;
54517;SDS011;40423;53.176;6.002;2023-04-01T02:36:12;11.63;;;9.32;;
54517;SDS011;40423;53.176;6.002;2023-04-01T02:38:40;11.35;;;8.35;;
54517;SDS011;40423;53.176;6.002;2023-04-01T02:41:07;15.23;;;10.50;;
54517;SDS011;40423;53.176;6.002;2023-04-01T02:43:33;15.07;;;10.18;;
54517;SDS011;40423;53.176;6.002;2023-04-01T02:45:59;16.60;;;11.35;;
54517;SDS011;40423;53.176;6.002;2023-04-01T02:48:25;13.50;;;10.45;;
54517;SDS011;40423;53.176;6.002;2023-04-01T02:50:50;13.25;;;10.27;;
54517;SDS011;40423;53.176;6.002;2023-04-01T02:53:16;12.82;;;9.75;;
54517;SDS011;40423;53.176;6.002;2023-04-01T02:55:42;13.65;;;9.80;;
54517;SDS011;40423;53.176;6.002;2023-04-01T02:58:09;13.18;;;10.73;;
54517;SDS011;40423;53.176;6.002;2023-04-01T03:00:36;15.43;;;10.63;;
54517;SDS011;40423;53.176;6.002;2023-04-01T03:03:02;14.88;;;10.60;;
54517;SDS011;40423;53.176;6.002;2023-04-01T03:05:28;15.63;;;10.75;;
54517;SDS011;40423;53.176;6.002;2023-04-01T03:07:54;12.60;;;9.80;;
54517;SDS011;40423;53.176;6.002;2023-04-01T03:10:20;13.43;;;10.68;;
54517;SDS011;40423;53.176;6.002;2023-04-01T03:12:46;12.80;;;10.25;;
54517;SDS011;40423;53.176;6.002;2023-04-01T03:15:12;15.15;;;11.32;;
54517;SDS011;40423;53.176;6.002;2023-04-01T03:17:39;16.38;;;11.75;;
54517;SDS011;40423;53.176;6.002;2023-04-01T03:20:06;18.05;;;12.43;;
54517;SDS011;40423;53.176;6.002;2023-04-01T03:22:33;15.52;;;11.10;;
54517;SDS011;40423;53.176;6.002;2023-04-01T03:25:00;15.77;;;11.50;;
54517;SDS011;40423;53.176;6.002;2023-04-01T03:27:27;18.45;;;12.93;;
54517;SDS011;40423;53.176;6.002;2023-04-01T03:29:53;17.25;;;13.05;;
54517;SDS011;40423;53.176;6.002;2023-04-01T03:32:19;19.45;;;13.05;;
54517;SDS011;40423;53.176;6.002;2023-04-01T03:34:45;19.65;;;12.88;;
54517;SDS011;40423;53.176;6.002;2023-04-01T03:37:11;17.88;;;13.27;;
54517;SDS011;40423;53.176;6.002;2023-04-01T03:39:36;15.20;;;11.85;;
54517;SDS011;40423;53.176;6.002;2023-04-01T03:42:02;18.10;;;10.77;;
54517;SDS011;40423;53.176;6.002;2023-04-01T03:44:32;15.13;;;11.68;;
54517;SDS011;40423;53.176;6.002;2023-04-01T03:46:58;16.85;;;11.70;;
54517;SDS011;40423;53.176;6.002;2023-04-01T03:49:24;17.58;;;12.38;;
54517;SDS011;40423;53.176;6.002;2023-04-01T03:51:50;15.43;;;11.32;;
54517;SDS011;40423;53.176;6.002;2023-04-01T03:54:15;16.95;;;12.38;;
54517;SDS011;40423;53.176;6.002;2023-04-01T03:56:42;16.70;;;11.25;;
54517;SDS011;40423;53.176;6.002;2023-04-01T03:59:08;16.55;;;11.63;;
54517;SDS011;40423;53.176;6.002;2023-04-01T04:01:34;16.75;;;11.60;;
54517;SDS011;40423;53.176;6.002;2023-04-01T04:04:00;16.98;;;12.00;;
54517;SDS011;40423;53.176;6.002;2023-04-01T04:06:26;16.63;;;11.75;;
54517;SDS011;40423;53.176;6.002;2023-04-01T04:08:52;18.02;;;11.52;;
54517;SDS011;40423;53.176;6.002;2023-04-01T04:11:19;21.15;;;13.55;;
54517;SDS011;40423;53.176;6.002;2023-04-01T04:13:45;22.02;;;13.85;;
54517;SDS011;40423;53.176;6.002;2023-04-01T04:16:12;17.83;;;12.82;;
54517;SDS011;40423;53.176;6.002;2023-04-01T04:18:39;18.85;;;13.38;;
54517;SDS011;40423;53.176;6.002;2023-04-01T04:21:05;22.10;;;14.07;;
54517;SDS011;40423;53.176;6.002;2023-04-01T04:23:31;21.88;;;14.90;;
54517;SDS011;40423;53.176;6.002;2023-04-01T04:25:59;17.83;;;12.63;;
54517;SDS011;40423;53.176;6.002;2023-04-01T04:28:27;18.88;;;12.43;;
54517;SDS011;40423;53.176;6.002;2023-04-01T04:30:54;19.00;;;13.13;;
54517;SDS011;40423;53.176;6.002;2023-04-01T04:33:20;21.45;;;13.63;;
54517;SDS011;40423;53.176;6.002;2023-04-01T04:35:47;23.85;;;14.25;;
54517;SDS011;40423;53.176;6.002;2023-04-01T04:38:13;21.88;;;14.45;;
54517;SDS011;40423;53.176;6.002;2023-04-01T04:40:39;18.90;;;13.20;;
54517;SDS011;40423;53.176;6.002;2023-04-01T04:43:06;20.33;;;14.48;;
54517;SDS011;40423;53.176;6.002;2023-04-01T04:45:32;18.85;;;14.02;;
54517;SDS011;40423;53.176;6.002;2023-04-01T04:47:58;19.52;;;14.18;;
54517;SDS011;40423;53.176;6.002;2023-04-01T04:50:24;23.20;;;15.43;;
54517;SDS011;40423;53.176;6.002;2023-04-01T04:52:50;24.35;;;15.98;;
54517;SDS011;40423;53.176;6.002;2023-04-01T04:55:16;21.50;;;15.25;;
54517;SDS011;40423;53.176;6.002;2023-04-01T04:57:42;20.95;;;15.35;;
54517;SDS011;40423;53.176;6.002;2023-04-01T05:00:08;24.38;;;16.33;;
54517;SDS011;40423;53.176;6.002;2023-04-01T05:02:37;23.65;;;15.57;;
54517;SDS011;40423;53.176;6.002;2023-04-01T05:05:03;27.45;;;17.40;;
54517;SDS011;40423;53.176;6.002;2023-04-01T05:07:29;23.52;;;16.33;;
54517;SDS011;40423;53.176;6.002;2023-04-01T05:09:55;30.05;;;17.65;;
54517;SDS011;40423;53.176;6.002;2023-04-01T05:12:21;26.27;;;16.27;;
54517;SDS011;40423;53.176;6.002;2023-04-01T05:14:46;26.92;;;17.23;;
54517;SDS011;40423;53.176;6.002;2023-04-01T05:17:12;25.77;;;17.38;;
54517;SDS011;40423;53.176;6.002;2023-04-01T05:19:38;25.90;;;17.08;;
54517;SDS011;40423;53.176;6.002;2023-04-01T05:22:05;32.13;;;18.33;;
54517;SDS011;40423;53.176;6.002;2023-04-01T05:24:31;31.02;;;18.45;;
54517;SDS011;40423;53.176;6.002;2023-04-01T05:26:57;25.98;;;17.10;;
54517;SDS011;40423;53.176;6.002;2023-04-01T05:29:23;25.83;;;16.90;;
54517;SDS011;40423;53.176;6.002;2023-04-01T05:31:50;24.75;;;16.77;;
54517;SDS011;40423;53.176;6.002;2023-04-01T05:34:16;33.20;;;19.50;;
54517;SDS011;40423;53.176;6.002;2023-04-01T05:36:42;23.63;;;15.98;;
54517;SDS011;40423;53.176;6.002;2023-04-01T05:39:08;24.77;;;16.67;;
54517;SDS011;40423;53.176;6.002;2023-04-01T05:41:35;25.98;;;17.02;;
54517;SDS011;40423;53.176;6.002;2023-04-01T05:44:01;23.17;;;16.58;;
54517;SDS011;40423;53.176;6.002;2023-04-01T05:46:27;22.08;;;15.57;;
54517;SDS011;40423;53.176;6.002;2023-04-01T05:48:53;26.90;;;17.83;;
54517;SDS011;40423;53.176;6.002;2023-04-01T05:51:19;25.17;;;16.27;;
54517;SDS011;40423;53.176;6.002;2023-04-01T05:53:45;23.05;;;15.20;;
54517;SDS011;40423;53.176;6.002;2023-04-01T05:56:10;24.08;;;16.30;;
54517;SDS011;40423;53.176;6.002;2023-04-01T05:58:37;21.88;;;16.35;;
54517;SDS011;40423;53.176;6.002;2023-04-01T06:01:04;23.65;;;17.27;;
54517;SDS011;40423;53.176;6.002;2023-04-01T06:03:34;22.35;;;16.27;;
54517;SDS011;40423;53.176;6.002;2023-04-01T06:06:00;25.73;;;16.50;;
54517;SDS011;40423;53.176;6.002;2023-04-01T06:08:27;24.67;;;16.52;;
54517;SDS011;40423;53.176;6.002;2023-04-01T06:11:00;24.98;;;15.77;;
54517;SDS011;40423;53.176;6.002;2023-04-01T06:16:42;23.27;;;16.45;;
54517;SDS011;40423;53.176;6.002;2023-04-01T06:22:16;24.25;;;16.17;;
54517;SDS011;40423;53.176;6.002;2023-04-01T06:25:23;21.98;;;16.23;;
54517;SDS011;40423;53.176;6.002;2023-04-01T06:30:44;26.50;;;17.60;;
54517;SDS011;40423;53.176;6.002;2023-04-01T06:36:39;24.65;;;17.10;;
54517;SDS011;40423;53.176;6.002;2023-04-01T06:53:11;24.25;;;16.33;;
54517;SDS011;40423;53.176;6.002;2023-04-01T06:58:51;20.20;;;14.10;;
54517;SDS011;40423;53.176;6.002;2023-04-01T07:01:42;23.95;;;15.40;;
54517;SDS011;40423;53.176;6.002;2023-04-01T07:04:20;18.80;;;13.38;;
54517;SDS011;40423;53.176;6.002;2023-04-01T07:06:57;25.15;;;15.10;;
54517;SDS011;40423;53.176;6.002;2023-04-01T07:12:46;22.05;;;14.07;;
54517;SDS011;40423;53.176;6.002;2023-04-01T07:15:11;20.92;;;14.38;;
54517;SDS011;40423;53.176;6.002;2023-04-01T07:17:44;22.45;;;14.70;;
54517;SDS011;40423;53.176;6.002;2023-04-01T07:23:19;21.90;;;15.52;;
54517;SDS011;40423;53.176;6.002;2023-04-01T07:26:09;24.90;;;16.25;;
54517;SDS011;40423;53.176;6.002;2023-04-01T07:28:41;23.88;;;16.13;;
54517;SDS011;40423;53.176;6.002;2023-04-01T07:33:51;21.05;;;15.68;;
54517;SDS011;40423;53.176;6.002;2023-04-01T07:36:39;27.65;;;18.33;;
54517;SDS011;40423;53.176;6.002;2023-04-01T07:49:29;26.55;;;18.35;;
54517;SDS011;40423;53.176;6.002;2023-04-01T07:57:04;23.65;;;17.90;;
54517;SDS011;40423;53.176;6.002;2023-04-01T07:59:46;21.42;;;16.35;;
54517;SDS011;40423;53.176;6.002;2023-04-01T08:02:53;23.25;;;17.27;;
54517;SDS011;40423;53.176;6.002;2023-04-01T08:15:53;22.33;;;16.15;;
54517;SDS011;40423;53.176;6.002;2023-04-01T08:18:37;25.98;;;16.75;;
54517;SDS011;40423;53.176;6.002;2023-04-01T08:21:32;26.05;;;16.90;;
54517;SDS011;40423;53.176;6.002;2023-04-01T08:30:25;22.73;;;14.63;;
54517;SDS011;40423;53.176;6.002;2023-04-01T08:35:30;19.75;;;12.75;;
54517;SDS011;40423;53.176;6.002;2023-04-01T08:38:11;20.88;;;13.55;;
54517;SDS011;40423;53.176;6.002;2023-04-01T08:40:51;19.73;;;12.23;;
54517;SDS011;40423;53.176;6.002;2023-04-01T08:43:23;17.90;;;11.48;;
54517;SDS011;40423;53.176;6.002;2023-04-01T08:46:17;18.52;;;11.15;;
54517;SDS011;40423;53.176;6.002;2023-04-01T08:49:16;15.20;;;10.55;;
54517;SDS011;40423;53.176;6.002;2023-04-01T09:00:15;12.15;;;8.52;;
54517;SDS011;40423;53.176;6.002;2023-04-01T09:08:23;10.48;;;7.65;;
54517;SDS011;40423;53.176;6.002;2023-04-01T09:16:44;12.60;;;8.50;;
54517;SDS011;40423;53.176;6.002;2023-04-01T09:25:22;11.75;;;6.55;;
54517;SDS011;40423;53.176;6.002;2023-04-01T09:31:05;11.40;;;6.85;;
54517;SDS011;40423;53.176;6.002;2023-04-01T09:33:47;6.47;;;4.65;;
54517;SDS011;40423;53.176;6.002;2023-04-01T09:36:28;6.30;;;5.10;;
54517;SDS011;40423;53.176;6.002;2023-04-01T09:44:37;7.30;;;5.47;;
54517;SDS011;40423;53.176;6.002;2023-04-01T09:49:55;8.38;;;6.07;;
54517;SDS011;40423;53.176;6.002;2023-04-01T09:52:35;9.65;;;7.13;;
54517;SDS011;40423;53.176;6.002;2023-04-01T10:31:33;7.15;;;5.28;;
54517;SDS011;40423;53.176;6.002;2023-04-01T10:36:51;6.10;;;4.63;;
54517;SDS011;40423;53.176;6.002;2023-04-01T10:56:54;7.45;;;4.32;;
54517;SDS011;40423;53.176;6.002;2023-04-01T11:02:36;8.38;;;4.93;;
54517;SDS011;40423;53.176;6.002;2023-04-01T11:22:14;5.07;;;3.60;;
54517;SDS011;40423;53.176;6.002;2023-04-01T11:44:34;4.78;;;2.88;;
54517;SDS011;40423;53.176;6.002;2023-04-01T11:52:17;5.80;;;2.97;;
54517;SDS011;40423;53.176;6.002;2023-04-01T11:55:50;5.90;;;3.55;;
54517;SDS011;40423;53.176;6.002;2023-04-01T12:26:13;4.30;;;2.70;;
54517;SDS011;40423;53.176;6.002;2023-04-01T12:34:32;6.57;;;3.00;;
54517;SDS011;40423;53.176;6.002;2023-04-01T12:37:25;4.43;;;3.00;;
54517;SDS011;40423;53.176;6.002;2023-04-01T12:48:47;5.97;;;2.83;;
54517;SDS011;40423;53.176;6.002;2023-04-01T12:59:48;6.43;;;3.30;;
54517;SDS011;40423;53.176;6.002;2023-04-01T13:02:46;5.07;;;3.38;;
54517;SDS011;40423;53.176;6.002;2023-04-01T13:05:39;4.75;;;3.03;;
54517;SDS011;40423;53.176;6.002;2023-04-01T13:16:11;5.57;;;2.00;;
54517;SDS011;40423;53.176;6.002;2023-04-01T13:24:31;3.28;;;2.40;;
54517;SDS011;40423;53.176;6.002;2023-04-01T13:43:15;4.93;;;2.30;;
54517;SDS011;40423;53.176;6.002;2023-04-01T13:48:45;3.72;;;2.20;;
54517;SDS011;40423;53.176;6.002;2023-04-01T13:54:26;2.90;;;2.00;;
54517;SDS011;40423;53.176;6.002;2023-04-01T14:11:27;4.15;;;2.15;;
54517;SDS011;40423;53.176;6.002;2023-04-01T14:25:23;2.90;;;2.13;;
54517;SDS011;40423;53.176;6.002;2023-04-01T14:28:18;3.17;;;1.65;;
54517;SDS011;40423;53.176;6.002;2023-04-01T14:50:12;3.42;;;1.70;;
54517;SDS011;40423;53.176;6.002;2023-04-01T14:52:39;2.85;;;1.65;;
54517;SDS011;40423;53.176;6.002;2023-04-01T14:55:27;3.95;;;1.80;;
54517;SDS011;40423;53.176;6.002;2023-04-01T15:00:41;5.47;;;1.80;;
54517;SDS011;40423;53.176;6.002;2023-04-01T15:03:38;3.30;;;1.60;;
54517;SDS011;40423;53.176;6.002;2023-04-01T15:09:06;3.95;;;2.15;;
54517;SDS011;40423;53.176;6.002;2023-04-01T15:11:48;2.92;;;2.20;;
54517;SDS011;40423;53.176;6.002;2023-04-01T15:14:35;4.32;;;2.22;;
54517;SDS011;40423;53.176;6.002;2023-04-01T15:28:10;4.97;;;2.55;;
54517;SDS011;40423;53.176;6.002;2023-04-01T15:33:46;4.30;;;2.72;;
54517;SDS011;40423;53.176;6.002;2023-04-01T15:44:45;6.30;;;2.70;;
54517;SDS011;40423;53.176;6.002;2023-04-01T15:47:28;6.45;;;3.15;;
54517;SDS011;40423;53.176;6.002;2023-04-01T15:55:43;4.47;;;2.92;;
54517;SDS011;40423;53.176;6.002;2023-04-01T16:11:16;10.07;;;5.10;;
54517;SDS011;40423;53.176;6.002;2023-04-01T16:14:04;8.60;;;4.30;;
54517;SDS011;40423;53.176;6.002;2023-04-01T16:19:37;9.77;;;5.63;;
54517;SDS011;40423;53.176;6.002;2023-04-01T16:23:13;15.05;;;5.80;;
54517;SDS011;40423;53.176;6.002;2023-04-01T16:25:33;15.20;;;6.28;;
54517;SDS011;40423;53.176;6.002;2023-04-01T16:28:30;12.98;;;5.88;;
54517;SDS011;40423;53.176;6.002;2023-04-01T16:31:14;10.75;;;5.57;;
54517;SDS011;40423;53.176;6.002;2023-04-01T16:36:46;14.07;;;6.38;;
54517;SDS011;40423;53.176;6.002;2023-04-01T16:44:31;10.27;;;4.75;;
54517;SDS011;40423;53.176;6.002;2023-04-01T16:47:36;9.73;;;5.05;;
54517;SDS011;40423;53.176;6.002;2023-04-01T16:53:02;12.02;;;5.65;;
54517;SDS011;40423;53.176;6.002;2023-04-01T16:58:56;8.85;;;5.55;;
54517;SDS011;40423;53.176;6.002;2023-04-01T17:01:20;7.10;;;4.97;;
54517;SDS011;40423;53.176;6.002;2023-04-01T17:03:52;9.15;;;5.03;;
54517;SDS011;40423;53.176;6.002;2023-04-01T17:06:33;6.93;;;4.88;;
54517;SDS011;40423;53.176;6.002;2023-04-01T17:09:23;13.45;;;5.97;;
54517;SDS011;40423;53.176;6.002;2023-04-01T17:19:48;11.57;;;5.82;;
54517;SDS011;40423;53.176;6.002;2023-04-01T17:30:35;10.60;;;5.45;;
54517;SDS011;40423;53.176;6.002;2023-04-01T17:35:59;11.82;;;6.28;;
54517;SDS011;40423;53.176;6.002;2023-04-01T17:49:34;8.27;;;5.85;;
54517;SDS011;40423;53.176;6.002;2023-04-01T18:00:19;11.88;;;5.40;;
54517;SDS011;40423;53.176;6.002;2023-04-01T18:08:43;10.10;;;5.68;;
54517;SDS011;40423;53.176;6.002;2023-04-01T18:17:23;10.45;;;5.35;;
54517;SDS011;40423;53.176;6.002;2023-04-01T18:30:38;12.30;;;5.33;;
54517;SDS011;40423;53.176;6.002;2023-04-01T18:36:09;9.65;;;5.15;;
54517;SDS011;40423;53.176;6.002;2023-04-01T18:38:57;12.43;;;5.65;;
54517;SDS011;40423;53.176;6.002;2023-04-01T18:41:36;15.60;;;5.55;;
54517;SDS011;40423;53.176;6.002;2023-04-01T18:47:05;9.32;;;5.05;;
54517;SDS011;40423;53.176;6.002;2023-04-01T18:52:45;12.35;;;6.97;;
54517;SDS011;40423;53.176;6.002;2023-04-01T18:57:54;16.17;;;7.35;;
54517;SDS011;40423;53.176;6.002;2023-04-01T19:00:39;15.23;;;7.60;;
54517;SDS011;40423;53.176;6.002;2023-04-01T19:03:27;14.02;;;6.43;;
54517;SDS011;40423;53.176;6.002;2023-04-01T19:06:08;15.45;;;7.03;;
54517;SDS011;40423;53.176;6.002;2023-04-01T19:08:53;10.98;;;6.25;;
54517;SDS011;40423;53.176;6.002;2023-04-01T19:11:32;14.55;;;6.80;;
54517;SDS011;40423;53.176;6.002;2023-04-01T19:14:45;14.00;;;7.60;;
54517;SDS011;40423;53.176;6.002;2023-04-01T19:20:34;10.05;;;6.38;;
54517;SDS011;40423;53.176;6.002;2023-04-01T19:23:13;15.00;;;6.35;;
54517;SDS011;40423;53.176;6.002;2023-04-01T19:25:57;8.60;;;5.13;;
54517;SDS011;40423;53.176;6.002;2023-04-01T19:31:19;11.60;;;6.35;;
54517;SDS011;40423;53.176;6.002;2023-04-01T19:34:06;24.92;;;7.30;;
54517;SDS011;40423;53.176;6.002;2023-04-01T19:37:05;12.15;;;6.55;;
54517;SDS011;40423;53.176;6.002;2023-04-01T19:42:59;13.60;;;6.65;;
54517;SDS011;40423;53.176;6.002;2023-04-01T19:45:38;13.27;;;6.70;;
54517;SDS011;40423;53.176;6.002;2023-04-01T19:48:33;12.18;;;6.20;;
54517;SDS011;40423;53.176;6.002;2023-04-01T19:51:26;14.88;;;6.93;;
54517;SDS011;40423;53.176;6.002;2023-04-01T19:56:47;13.32;;;6.30;;
54517;SDS011;40423;53.176;6.002;2023-04-01T19:59:27;14.55;;;5.70;;
54517;SDS011;40423;53.176;6.002;2023-04-01T20:04:45;12.80;;;6.20;;
54517;SDS011;40423;53.176;6.002;2023-04-01T20:07:34;14.00;;;7.07;;
54517;SDS011;40423;53.176;6.002;2023-04-01T20:10:10;12.45;;;6.53;;
54517;SDS011;40423;53.176;6.002;2023-04-01T20:12:49;14.13;;;7.22;;
54517;SDS011;40423;53.176;6.002;2023-04-01T20:15:33;16.83;;;8.30;;
54517;SDS011;40423;53.176;6.002;2023-04-01T20:18:13;14.82;;;6.95;;
54517;SDS011;40423;53.176;6.002;2023-04-01T20:21:03;13.68;;;7.05;;
54517;SDS011;40423;53.176;6.002;2023-04-01T20:23:41;13.35;;;7.60;;
54517;SDS011;40423;53.176;6.002;2023-04-01T20:26:11;12.75;;;6.22;;
54517;SDS011;40423;53.176;6.002;2023-04-01T20:34:03;16.08;;;7.43;;
54517;SDS011;40423;53.176;6.002;2023-04-01T20:51:18;16.55;;;7.60;;
54517;SDS011;40423;53.176;6.002;2023-04-01T20:53:58;15.02;;;7.22;;
54517;SDS011;40423;53.176;6.002;2023-04-01T20:56:56;15.73;;;7.10;;
54517;SDS011;40423;53.176;6.002;2023-04-01T21:10:41;12.25;;;6.22;;
54517;SDS011;40423;53.176;6.002;2023-04-01T21:13:37;12.82;;;6.40;;
54517;SDS011;40423;53.176;6.002;2023-04-01T21:35:26;11.70;;;5.53;;
54517;SDS011;40423;53.176;6.002;2023-04-01T21:48:41;11.65;;;5.55;;
54517;SDS011;40423;53.176;6.002;2023-04-01T21:54:03;10.75;;;6.10;;
54517;SDS011;40423;53.176;6.002;2023-04-01T22:00:18;12.05;;;5.65;;
54517;SDS011;40423;53.176;6.002;2023-04-01T22:05:07;11.18;;;4.80;;
54517;SDS011;40423;53.176;6.002;2023-04-01T22:07:47;8.88;;;5.18;;
54517;SDS011;40423;53.176;6.002;2023-04-01T22:13:11;14.32;;;5.45;;
54517;SDS011;40423;53.176;6.002;2023-04-01T22:16:02;12.45;;;5.28;;
54517;SDS011;40423;53.176;6.002;2023-04-01T22:18:46;11.98;;;5.15;;
54517;SDS011;40423;53.176;6.002;2023-04-01T22:21:44;10.43;;;5.38;;
54517;SDS011;40423;53.176;6.002;2023-04-01T22:24:24;8.05;;;4.82;;
54517;SDS011;40423;53.176;6.002;2023-04-01T22:29:53;9.15;;;5.45;;
54517;SDS011;40423;53.176;6.002;2023-04-01T22:35:33;12.15;;;4.93;;
54517;SDS011;40423;53.176;6.002;2023-04-01T22:48:47;18.52;;;5.15;;
54517;SDS011;40423;53.176;6.002;2023-04-01T22:51:24;11.73;;;5.10;;
54517;SDS011;40423;53.176;6.002;2023-04-01T22:54:13;7.53;;;4.40;;
54517;SDS011;40423;53.176;6.002;2023-04-01T22:56:47;10.45;;;4.53;;
54517;SDS011;40423;53.176;6.002;2023-04-01T22:59:37;8.43;;;4.05;;
54517;SDS011;40423;53.176;6.002;2023-04-01T23:02:18;8.48;;;4.28;;
54517;SDS011;40423;53.176;6.002;2023-04-01T23:04:54;9.55;;;3.72;;
54517;SDS011;40423;53.176;6.002;2023-04-01T23:10:19;12.10;;;4.47;;
54517;SDS011;40423;53.176;6.002;2023-04-01T23:12:57;10.98;;;3.95;;
54517;SDS011;40423;53.176;6.002;2023-04-01T23:15:26;9.48;;;5.05;;
54517;SDS011;40423;53.176;6.002;2023-04-01T23:28:44;8.07;;;3.95;;
54517;SDS011;40423;53.176;6.002;2023-04-01T23:34:20;11.50;;;4.15;;
54517;SDS011;40423;53.176;6.002;2023-04-01T23:36:55;10.38;;;3.97;;
54517;SDS011;40423;53.176;6.002;2023-04-01T23:39:41;10.68;;;4.03;;
54517;SDS011;40423;53.176;6.002;2023-04-01T23:44:44;6.90;;;3.70;;
54517;SDS011;40423;53.176;6.002;2023-04-01T23:47:13;10.07;;;3.42;;
54517;SDS011;40423;53.176;6.002;2023-04-01T23:50:23;7.72;;;3.70;;
54517;SDS011;40423;53.176;6.002;2023-04-01T23:52:46;7.32;;;3.03;;
54517;SDS011;40423;53.176;6.002;2023-04-01T23:55:17;6.15;;;3.13;;
